logo
Search for airport 
image banner adimage banner adimage banner ad
image banner ad

CAJ8 - Pitt Meadows

Located in , Canada

ICAO - CAJ8, IATA -

Data provided by Airmate  

General information

Coordinates: N49°12'34" W122°42'34"
Elevation is 6 feet MSL.
Magnetic variation is 16.8869° East
View others Airports in British Columbia

Operational data

Special qualification required
Current time UTC:
Current local time:
Weather at : CYXX - Abbotsford ( 33 km )
METAR: CYXX 161900Z 21004KT 160V280 30SM SKC 26/17 A2999 RMK SLP158 DENSITY ALT 1400FT
TAF: TAF CYXX 161740Z 1618/1718 VRB03KT P6SM SKC BECMG 1618/1620 22008KT BECMG 1702/1704 VRB03KT FM171500 22005KT P6SM FEW180 RMK NXT FCST BY 170000Z
View NOTAMs / SUP AIP / TFR affecting this airport [VIEW]
Communications frequencies: [VIEW]

Runways:

RWY identifierQFULength (ft)Width (ft)SurfaceLDA (ft)
W00WATER

Airport contact information

Address: Canada

Satellite view of CAJ8